createdAt,value
2023-03-29T00:02:41.281Z,7.25
2023-03-29T00:07:43.461Z,6.53
2023-03-29T00:12:45.581Z,5.32
2023-03-29T00:17:47.665Z,4.82
2023-03-29T00:22:49.851Z,4.85
2023-03-29T00:27:51.860Z,4.90
2023-03-29T00:32:54.030Z,6.60
2023-03-29T00:37:57.374Z,6.00
2023-03-29T00:43:00.587Z,6.25
2023-03-29T00:48:06.581Z,5.15
2023-03-29T00:53:17.352Z,6.60
2023-03-29T00:58:26.671Z,6.00
2023-03-29T01:03:34.321Z,6.65
2023-03-29T01:08:44.780Z,9.25
2023-03-29T01:14:08.846Z,3.40
2023-03-29T01:19:16.014Z,4.65
2023-03-29T01:24:33.463Z,5.65
2023-03-29T01:29:38.682Z,6.43
2023-03-29T01:34:55.378Z,5.25
2023-03-29T01:39:57.450Z,5.20
2023-03-29T01:45:09.100Z,5.00
2023-03-29T01:50:19.840Z,5.55
2023-03-29T01:55:51.393Z,5.88
2023-03-29T02:00:55.417Z,5.87
2023-03-29T02:05:59.609Z,5.93
2023-03-29T02:11:03.202Z,5.55
2023-03-29T02:16:13.408Z,6.57
2023-03-29T02:21:37.372Z,5.28
2023-03-29T02:26:39.622Z,5.28
2023-03-29T02:31:49.573Z,7.18
2023-03-29T02:37:06.971Z,8.10
2023-03-29T02:42:10.019Z,9.52
2023-03-29T02:47:22.072Z,4.72
2023-03-29T02:52:35.616Z,4.90
2023-03-29T02:57:39.534Z,4.75
2023-03-29T03:02:41.970Z,5.35
2023-03-29T03:07:46.235Z,6.03
2023-03-29T03:12:49.023Z,5.47
2023-03-29T03:17:51.197Z,4.60
2023-03-29T03:22:53.253Z,3.88
2023-03-29T03:27:55.429Z,4.88
2023-03-29T03:32:59.691Z,5.22
2023-03-29T03:38:20.212Z,3.75
2023-03-29T03:43:30.408Z,6.05
2023-03-29T03:48:33.451Z,6.20
2023-03-29T03:53:51.777Z,4.22
2023-03-29T03:59:20.032Z,4.20
2023-03-29T04:04:34.930Z,4.18
2023-03-29T04:09:41.505Z,3.97
2023-03-29T04:15:20.366Z,5.53
2023-03-29T04:20:33.753Z,9.60
2023-03-29T04:25:36.746Z,9.65
2023-03-29T04:31:13.312Z,8.53
2023-03-29T04:36:44.642Z,8.75
2023-03-29T04:41:53.647Z,4.95
2023-03-29T04:47:01.039Z,7.97
2023-03-29T04:57:27.920Z,9.60
2023-03-29T05:02:34.383Z,7.38
2023-03-29T05:07:38.068Z,15.13
2023-03-29T05:12:40.394Z,10.05
2023-03-29T05:17:42.634Z,6.95
2023-03-29T05:22:47.351Z,11.35
2023-03-29T05:28:03.623Z,7.63
2023-03-29T05:33:06.553Z,6.30
2023-03-29T05:38:10.027Z,7.75
2023-03-29T05:53:19.605Z,7.40
2023-03-29T05:58:22.256Z,6.95
2023-03-29T06:03:27.563Z,10.70
2023-03-29T06:08:35.271Z,7.18
2023-03-29T06:14:04.793Z,9.23
2023-03-29T06:19:07.788Z,8.05
2023-03-29T06:24:10.965Z,7.22
2023-03-29T06:29:19.689Z,7.53
2023-03-29T06:34:23.049Z,2.90
2023-03-29T06:39:53.451Z,9.00
2023-03-29T06:45:10.995Z,4.85
2023-03-29T06:50:14.805Z,4.63
2023-03-29T06:55:42.145Z,2.92
2023-03-29T07:01:07.555Z,4.30
2023-03-29T07:06:22.398Z,4.82
2023-03-29T07:11:25.289Z,7.28
2023-03-29T07:16:32.721Z,2.67
2023-03-29T07:22:01.191Z,4.72
2023-03-29T07:27:17.928Z,4.65
2023-03-29T07:32:23.846Z,4.97
2023-03-29T07:37:35.283Z,4.43
2023-03-29T07:42:38.488Z,3.53
2023-03-29T07:47:49.288Z,6.30
2023-03-29T07:52:52.090Z,3.95
2023-03-29T07:57:54.781Z,4.72
2023-03-29T08:02:57.708Z,6.80
2023-03-29T08:07:59.894Z,2.78
2023-03-29T08:13:22.160Z,3.20
2023-03-29T08:18:44.460Z,4.10
2023-03-29T08:23:47.154Z,5.32
2023-03-29T08:28:56.879Z,3.90
2023-03-29T08:34:02.057Z,3.55
2023-03-29T08:39:32.748Z,3.97
2023-03-29T08:45:16.048Z,6.65
2023-03-29T08:50:32.610Z,5.85
2023-03-29T08:55:43.682Z,5.40
2023-03-29T09:01:19.224Z,5.70
2023-03-29T09:06:31.804Z,9.10
2023-03-29T09:11:53.468Z,7.40
2023-03-29T09:17:08.364Z,3.38
2023-03-29T09:22:28.105Z,4.28
2023-03-29T09:27:48.636Z,5.38
2023-03-29T09:33:25.023Z,4.40
2023-03-29T09:38:51.100Z,4.78
2023-03-29T09:43:56.399Z,6.05
2023-03-29T09:49:07.051Z,8.10
2023-03-29T09:54:12.585Z,6.30
2023-03-29T09:59:33.162Z,9.43
2023-03-29T10:04:36.190Z,10.55
2023-03-29T10:09:42.334Z,9.48
2023-03-29T10:14:54.388Z,11.15
2023-03-29T10:19:59.203Z,5.10
2023-03-29T10:25:02.431Z,8.75
2023-03-29T10:30:14.175Z,6.75
2023-03-29T10:35:34.857Z,9.13
2023-03-29T10:40:45.226Z,6.07
2023-03-29T10:45:52.770Z,14.25
2023-03-29T10:51:00.287Z,7.75
2023-03-29T10:56:28.022Z,7.30
2023-03-29T11:01:44.362Z,6.90
2023-03-29T11:07:08.799Z,8.18
2023-03-29T11:12:26.581Z,7.95
2023-03-29T11:18:05.985Z,6.28
2023-03-29T11:23:27.539Z,5.40
2023-03-29T11:28:53.055Z,6.75
2023-03-29T11:34:20.258Z,7.82
2023-03-29T11:39:43.545Z,9.45
2023-03-29T11:44:50.739Z,5.00
2023-03-29T11:50:24.876Z,4.15
2023-03-29T11:55:32.437Z,7.00
2023-03-29T12:00:46.582Z,7.72
2023-03-29T12:05:56.819Z,4.40
2023-03-29T12:11:29.173Z,4.00
2023-03-29T12:17:03.200Z,4.22
2023-03-29T12:22:07.947Z,4.72
2023-03-29T12:27:17.237Z,5.53
2023-03-29T12:32:37.810Z,5.35
2023-03-29T12:38:21.012Z,4.20
2023-03-29T12:44:03.576Z,5.32
2023-03-29T12:49:32.615Z,7.38
2023-03-29T12:54:34.775Z,6.63
2023-03-29T12:59:46.391Z,5.95
2023-03-29T13:04:48.414Z,3.67
2023-03-29T13:10:08.693Z,6.03
2023-03-29T13:15:19.360Z,5.25
2023-03-29T13:20:50.946Z,5.05
2023-03-29T13:26:06.448Z,4.03
2023-03-29T13:31:23.551Z,4.68
2023-03-29T13:36:46.281Z,6.43
2023-03-29T13:41:53.109Z,5.55
2023-03-29T13:47:19.348Z,5.25
2023-03-29T13:52:21.374Z,5.68
2023-03-29T13:57:30.293Z,5.53
2023-03-29T14:02:49.428Z,6.80
2023-03-29T14:07:54.437Z,5.85
2023-03-29T14:12:57.744Z,6.35
2023-03-29T14:18:01.579Z,5.82
2023-03-29T14:23:20.049Z,8.35
2023-03-29T14:28:24.956Z,9.43
2023-03-29T14:33:29.377Z,9.80
2023-03-29T14:38:32.340Z,8.98
2023-03-29T14:43:34.397Z,6.82
2023-03-29T14:48:37.525Z,8.15
2023-03-29T14:53:41.746Z,8.10
2023-03-29T14:58:47.402Z,9.55
2023-03-29T15:04:02.069Z,9.02
2023-03-29T15:09:06.591Z,8.65
2023-03-29T15:14:16.823Z,7.13
2023-03-29T15:19:22.207Z,6.95
2023-03-29T15:24:33.337Z,7.20
2023-03-29T15:29:41.909Z,10.13
2023-03-29T15:34:44.048Z,6.75
2023-03-29T15:39:46.118Z,8.52
2023-03-29T15:44:48.210Z,7.65
2023-03-29T15:49:50.769Z,9.20
2023-03-29T15:54:52.810Z,10.13
2023-03-29T15:59:54.950Z,8.63
2023-03-29T16:04:56.998Z,8.57
2023-03-29T16:09:59.081Z,7.25
2023-03-29T16:15:01.189Z,8.07
2023-03-29T16:20:05.431Z,8.90
2023-03-29T16:25:13.596Z,15.30
2023-03-29T16:30:16.165Z,9.40
2023-03-29T16:35:30.603Z,10.55
2023-03-29T16:40:33.404Z,10.20
2023-03-29T16:45:35.471Z,9.30
2023-03-29T16:50:37.771Z,12.98
2023-03-29T16:55:40.437Z,10.15
2023-03-29T17:00:45.693Z,10.73
2023-03-29T17:05:54.562Z,13.00
2023-03-29T17:10:56.682Z,11.50
2023-03-29T17:15:58.851Z,12.65
2023-03-29T17:21:01.729Z,13.25
2023-03-29T17:26:04.855Z,12.70
2023-03-29T17:31:08.064Z,11.20
2023-03-29T17:36:10.753Z,11.75
2023-03-29T17:41:12.818Z,13.02
2023-03-29T17:46:16.631Z,13.25
2023-03-29T17:51:19.934Z,11.18
2023-03-29T17:56:22.907Z,14.27
2023-03-29T18:01:25.172Z,12.82
2023-03-29T18:06:27.369Z,13.93
2023-03-29T18:11:29.692Z,13.35
2023-03-29T18:16:31.824Z,13.43
2023-03-29T18:21:33.930Z,14.55
2023-03-29T18:26:36.041Z,14.63
2023-03-29T18:31:38.167Z,16.85
2023-03-29T18:36:40.409Z,16.42
2023-03-29T18:41:42.440Z,18.63
2023-03-29T18:46:44.807Z,16.13
2023-03-29T18:51:47.741Z,21.90
2023-03-29T18:56:50.042Z,16.40
2023-03-29T19:01:52.359Z,16.33
2023-03-29T19:06:56.131Z,18.70
2023-03-29T19:11:58.249Z,19.38
2023-03-29T19:17:00.470Z,20.67
2023-03-29T19:22:02.638Z,20.73
2023-03-29T19:27:06.562Z,19.48
2023-03-29T19:32:08.742Z,25.08
2023-03-29T19:37:11.106Z,20.83
2023-03-29T19:42:13.247Z,23.30
2023-03-29T19:47:15.787Z,20.92
2023-03-29T19:52:17.943Z,20.85
2023-03-29T19:57:20.093Z,25.50
2023-03-29T20:02:22.289Z,27.17
2023-03-29T20:07:24.364Z,23.02
2023-03-29T20:12:26.575Z,23.40
2023-03-29T20:17:28.979Z,21.38
2023-03-29T20:22:32.826Z,22.55
2023-03-29T20:27:35.533Z,21.38
2023-03-29T20:32:37.836Z,20.15
2023-03-29T20:37:40.108Z,20.98
2023-03-29T20:42:42.301Z,21.25
2023-03-29T20:47:56.030Z,21.42
2023-03-29T20:53:02.285Z,24.63
2023-03-29T20:58:05.536Z,19.33
2023-03-29T21:03:08.654Z,21.50
2023-03-29T21:08:11.020Z,21.27
2023-03-29T21:13:13.172Z,22.65
2023-03-29T21:18:15.914Z,22.70
2023-03-29T21:23:18.001Z,25.25
2023-03-29T21:28:20.143Z,24.85
2023-03-29T21:33:22.349Z,25.33
2023-03-29T21:38:24.500Z,24.98
2023-03-29T21:43:26.604Z,25.80
2023-03-29T21:48:29.115Z,26.90
2023-03-29T21:53:31.433Z,30.55
2023-03-29T21:58:33.568Z,25.75
2023-03-29T22:03:37.519Z,29.88
2023-03-29T22:08:40.004Z,27.23
2023-03-29T22:13:42.945Z,26.45
2023-03-29T22:18:49.750Z,28.35
2023-03-29T22:23:54.266Z,30.73
2023-03-29T22:28:57.591Z,25.38
2023-03-29T22:34:00.785Z,28.67
2023-03-29T22:39:02.938Z,28.00
2023-03-29T22:44:05.858Z,27.30
2023-03-29T22:49:07.994Z,26.15
2023-03-29T22:54:10.094Z,40.53
2023-03-29T22:59:12.247Z,27.50
2023-03-29T23:04:14.724Z,25.13
2023-03-29T23:09:16.949Z,41.80
2023-03-29T23:14:19.105Z,33.40
2023-03-29T23:19:21.237Z,25.10
2023-03-29T23:24:23.580Z,28.02
2023-03-29T23:29:26.452Z,28.48
2023-03-29T23:34:28.809Z,23.40
2023-03-29T23:39:31.081Z,23.55
2023-03-29T23:44:33.224Z,28.33
2023-03-29T23:49:36.309Z,28.30
2023-03-29T23:54:38.334Z,27.13
2023-03-29T23:59:40.468Z,27.15
